createdAt,value
2022-08-26T00:00:01.823Z,10.20
2022-08-26T00:01:01.820Z,9.70
2022-08-26T00:02:01.887Z,9.50
2022-08-26T00:03:01.882Z,9.70
2022-08-26T00:04:01.900Z,9.50
2022-08-26T00:05:01.748Z,9.00
2022-08-26T00:06:01.735Z,9.60
2022-08-26T00:07:01.719Z,10.00
2022-08-26T00:08:01.706Z,9.70
2022-08-26T00:09:01.690Z,10.00
2022-08-26T00:10:01.674Z,10.20
2022-08-26T00:11:01.660Z,10.60
2022-08-26T00:12:01.646Z,10.10
2022-08-26T00:13:01.683Z,10.30
2022-08-26T00:14:01.620Z,9.50
2022-08-26T00:15:01.621Z,10.10
2022-08-26T00:16:01.588Z,10.30
2022-08-26T00:17:01.645Z,10.10
2022-08-26T00:18:01.559Z,9.60
2022-08-26T00:19:01.543Z,9.30
2022-08-26T00:20:01.532Z,10.10
2022-08-26T00:21:01.513Z,9.80
2022-08-26T00:22:01.499Z,9.50
2022-08-26T00:23:01.546Z,9.60
2022-08-26T00:24:01.470Z,9.80
2022-08-26T00:25:01.452Z,10.20
2022-08-26T00:26:01.439Z,9.90
2022-08-26T00:27:01.426Z,9.60
2022-08-26T00:28:01.409Z,10.20
2022-08-26T00:29:01.395Z,10.20
2022-08-26T00:30:01.380Z,9.70
2022-08-26T00:31:01.365Z,10.80
2022-08-26T00:32:01.433Z,10.30
2022-08-26T00:33:01.348Z,11.10
2022-08-26T00:34:01.320Z,11.10
2022-08-26T00:35:01.302Z,10.40
2022-08-26T00:36:01.291Z,10.70
2022-08-26T00:37:01.274Z,10.10
2022-08-26T00:38:01.260Z,10.60
2022-08-26T00:39:01.251Z,10.70
2022-08-26T00:40:01.292Z,10.80
2022-08-26T00:41:01.216Z,10.50
2022-08-26T00:42:01.203Z,10.70
2022-08-26T00:43:01.236Z,10.80
2022-08-26T00:44:01.172Z,10.90
2022-08-26T00:45:01.158Z,10.80
2022-08-26T00:46:01.223Z,11.00
2022-08-26T00:47:01.126Z,10.80
2022-08-26T00:48:01.112Z,10.70
2022-08-26T00:49:01.113Z,10.70
2022-08-26T00:50:01.083Z,11.10
2022-08-26T00:51:01.070Z,11.60
2022-08-26T00:52:01.054Z,11.80
2022-08-26T00:53:01.085Z,11.80
2022-08-26T00:54:01.020Z,12.20
2022-08-26T00:55:01.007Z,12.10
2022-08-26T00:56:00.994Z,11.50
2022-08-26T00:57:00.984Z,11.90
2022-08-26T00:58:00.962Z,11.90
2022-08-26T00:59:00.946Z,11.80
2022-08-26T01:00:00.933Z,11.40
2022-08-26T01:01:00.965Z,11.70
2022-08-26T01:02:02.611Z,12.00
2022-08-26T01:03:00.948Z,11.70
2022-08-26T01:04:00.871Z,10.90
2022-08-26T01:05:00.857Z,10.80
2022-08-26T01:06:00.841Z,11.40
2022-08-26T01:07:00.830Z,11.30
2022-08-26T01:08:00.812Z,11.50
2022-08-26T01:09:00.797Z,11.00
2022-08-26T01:10:00.781Z,11.60
2022-08-26T01:11:00.764Z,11.60
2022-08-26T01:12:00.751Z,10.80
2022-08-26T01:13:00.812Z,10.70
2022-08-26T01:14:00.724Z,12.10
2022-08-26T01:15:00.704Z,11.50
2022-08-26T01:16:00.732Z,11.20
2022-08-26T01:17:00.675Z,11.60
2022-08-26T01:18:00.661Z,11.10
2022-08-26T01:19:00.643Z,11.30
2022-08-26T01:20:00.629Z,11.30
2022-08-26T01:21:00.615Z,11.80
2022-08-26T01:22:00.600Z,11.20
2022-08-26T01:23:01.643Z,12.50
2022-08-26T01:24:00.572Z,12.70
2022-08-26T01:25:00.553Z,11.20
2022-08-26T01:26:00.539Z,11.50
2022-08-26T01:27:00.523Z,12.40
2022-08-26T01:28:00.507Z,11.40
2022-08-26T01:29:00.505Z,12.10
2022-08-26T01:30:00.480Z,11.50
2022-08-26T01:31:00.462Z,11.60
2022-08-26T01:32:00.560Z,11.30
2022-08-26T01:33:00.432Z,12.10
2022-08-26T01:34:00.418Z,12.00
2022-08-26T01:35:00.403Z,12.20
2022-08-26T01:36:00.388Z,12.00
2022-08-26T01:37:00.372Z,12.30
2022-08-26T01:38:00.359Z,12.30
2022-08-26T01:39:00.345Z,12.20
2022-08-26T01:40:00.454Z,12.40
2022-08-26T01:41:00.310Z,12.10
2022-08-26T01:42:03.121Z,12.10
2022-08-26T01:43:00.326Z,12.10
2022-08-26T01:44:00.268Z,11.80
2022-08-26T01:45:00.253Z,12.20
2022-08-26T01:46:00.297Z,12.10
2022-08-26T01:47:00.221Z,12.50
2022-08-26T01:48:00.206Z,12.20
2022-08-26T01:49:00.192Z,12.10
2022-08-26T01:50:00.202Z,12.40
2022-08-26T01:51:00.159Z,11.90
2022-08-26T01:52:00.146Z,12.70
2022-08-26T01:53:00.129Z,12.80
2022-08-26T01:54:00.134Z,12.20
2022-08-26T01:55:00.111Z,12.60
2022-08-26T01:56:00.101Z,12.50
2022-08-26T01:57:00.080Z,13.40
2022-08-26T01:58:00.052Z,13.40
2022-08-26T01:59:00.042Z,13.70
2022-08-26T02:00:00.028Z,14.30
2022-08-26T02:01:00.083Z,14.00
2022-08-26T02:01:59.994Z,12.70
2022-08-26T02:02:59.977Z,13.40
2022-08-26T02:03:59.964Z,13.50
2022-08-26T02:05:00.032Z,13.80
2022-08-26T02:05:59.936Z,14.00
2022-08-26T02:06:59.916Z,13.90
2022-08-26T02:07:59.900Z,13.40
2022-08-26T02:08:59.888Z,15.10
2022-08-26T02:09:59.870Z,13.40
2022-08-26T02:10:59.854Z,14.30
2022-08-26T02:11:59.839Z,14.40
2022-08-26T02:12:59.825Z,15.40
2022-08-26T02:13:59.808Z,14.20
2022-08-26T02:14:59.793Z,14.40
2022-08-26T02:15:59.799Z,15.40
2022-08-26T02:16:59.763Z,14.80
2022-08-26T02:17:59.748Z,14.90
2022-08-26T02:18:59.738Z,14.50
2022-08-26T02:19:59.717Z,15.20
2022-08-26T02:20:59.703Z,14.90
2022-08-26T02:21:59.687Z,15.40
2022-08-26T02:22:59.671Z,15.70
2022-08-26T02:23:59.658Z,16.10
2022-08-26T02:24:59.641Z,15.60
2022-08-26T02:25:59.628Z,15.30
2022-08-26T02:26:59.609Z,14.50
2022-08-26T02:27:59.596Z,15.60
2022-08-26T02:28:59.578Z,15.50
2022-08-26T02:29:59.561Z,15.90
2022-08-26T02:30:59.547Z,15.30
2022-08-26T02:31:59.539Z,15.90
2022-08-26T02:32:59.529Z,16.30
2022-08-26T02:33:59.529Z,16.30
2022-08-26T02:34:59.485Z,15.80
2022-08-26T02:35:59.472Z,16.60
2022-08-26T02:36:59.465Z,16.30
2022-08-26T02:37:59.438Z,16.40
2022-08-26T02:38:59.424Z,16.20
2022-08-26T02:39:59.470Z,16.80
2022-08-26T02:40:59.392Z,16.20
2022-08-26T02:41:59.377Z,17.00
2022-08-26T02:42:59.362Z,17.20
2022-08-26T02:43:59.347Z,17.10
2022-08-26T02:44:59.333Z,16.70
2022-08-26T02:46:01.818Z,17.30
2022-08-26T02:46:59.321Z,17.60
2022-08-26T02:47:59.616Z,17.40
2022-08-26T02:48:59.269Z,18.30
2022-08-26T02:49:59.252Z,17.70
2022-08-26T02:50:59.237Z,17.80
2022-08-26T02:51:59.223Z,17.70
2022-08-26T02:52:59.202Z,18.00
2022-08-26T02:53:59.189Z,18.10
2022-08-26T02:54:59.175Z,19.90
2022-08-26T02:55:59.162Z,19.90
2022-08-26T02:56:59.142Z,20.40
2022-08-26T02:57:59.133Z,20.10
2022-08-26T02:58:59.110Z,21.10
2022-08-26T02:59:59.098Z,21.00
2022-08-26T03:00:59.148Z,21.20
2022-08-26T03:01:59.110Z,22.50
2022-08-26T03:02:59.048Z,22.00
2022-08-26T03:03:59.036Z,22.20
2022-08-26T03:05:02.202Z,23.60
2022-08-26T03:05:59.001Z,23.20
2022-08-26T03:06:58.984Z,25.20
2022-08-26T03:07:58.971Z,24.10
2022-08-26T03:08:58.954Z,25.40
2022-08-26T03:09:58.937Z,24.30
2022-08-26T03:10:58.922Z,26.40
2022-08-26T03:11:58.906Z,26.10
2022-08-26T03:12:58.892Z,26.60
2022-08-26T03:13:58.876Z,27.60
2022-08-26T03:14:58.863Z,27.80
2022-08-26T03:15:58.894Z,26.90
2022-08-26T03:16:58.834Z,26.80
2022-08-26T03:17:58.813Z,27.80
2022-08-26T03:18:58.798Z,28.30
2022-08-26T03:19:58.781Z,29.30
2022-08-26T03:20:58.766Z,30.30
2022-08-26T03:21:58.749Z,30.30
2022-08-26T03:22:58.736Z,32.20
2022-08-26T03:23:58.915Z,33.70
2022-08-26T03:24:58.707Z,36.70
2022-08-26T03:25:58.686Z,36.40
2022-08-26T03:26:58.673Z,37.30
2022-08-26T03:27:59.580Z,36.80
2022-08-26T03:28:58.642Z,37.90
2022-08-26T03:29:58.623Z,37.50
2022-08-26T03:30:58.638Z,38.40
2022-08-26T03:31:58.595Z,37.70
2022-08-26T03:32:58.578Z,38.80
2022-08-26T03:33:59.536Z,38.90
2022-08-26T03:34:58.548Z,40.20
2022-08-26T03:35:58.529Z,41.00
2022-08-26T03:36:58.515Z,41.80
2022-08-26T03:37:58.496Z,42.40
2022-08-26T03:38:58.483Z,43.60
2022-08-26T03:39:58.525Z,43.50
2022-08-26T03:40:58.455Z,44.30
2022-08-26T03:41:58.434Z,44.90
2022-08-26T03:42:58.421Z,45.20
2022-08-26T03:44:01.536Z,45.40
2022-08-26T03:44:58.388Z,45.60
2022-08-26T03:45:58.371Z,48.60
2022-08-26T03:46:58.360Z,48.60
2022-08-26T03:47:58.397Z,48.00
2022-08-26T03:48:58.325Z,48.20
2022-08-26T03:49:58.309Z,49.60
2022-08-26T03:50:58.295Z,51.70
2022-08-26T03:51:58.276Z,51.40
2022-08-26T03:52:58.262Z,51.40
2022-08-26T03:53:58.244Z,52.00
2022-08-26T03:54:58.230Z,53.50
2022-08-26T03:55:58.213Z,51.30
2022-08-26T03:56:58.198Z,53.80
2022-08-26T03:57:58.187Z,51.50
2022-08-26T03:58:58.165Z,51.60
2022-08-26T03:59:58.151Z,55.30
2022-08-26T04:00:58.135Z,54.60
2022-08-26T04:01:58.236Z,56.20
2022-08-26T04:02:58.229Z,54.60
2022-08-26T04:03:58.185Z,55.70
2022-08-26T04:04:58.071Z,56.50
2022-08-26T04:05:58.126Z,56.10
2022-08-26T04:06:58.040Z,56.40
2022-08-26T04:07:58.022Z,55.40
2022-08-26T04:08:58.012Z,56.70
2022-08-26T04:09:58.016Z,57.40
2022-08-26T04:10:57.978Z,58.00
2022-08-26T04:11:57.963Z,58.10
2022-08-26T04:12:58.644Z,57.60
2022-08-26T04:13:57.929Z,57.60
2022-08-26T04:14:57.912Z,59.00
2022-08-26T04:15:57.911Z,58.20
2022-08-26T04:16:57.880Z,58.80
2022-08-26T04:17:57.865Z,60.50
2022-08-26T04:18:57.852Z,59.30
2022-08-26T04:19:57.835Z,58.40
2022-08-26T04:20:57.819Z,59.90
2022-08-26T04:21:57.800Z,60.90
2022-08-26T04:22:57.787Z,60.70
2022-08-26T04:23:58.285Z,64.00
2022-08-26T04:24:57.757Z,61.80
2022-08-26T04:25:57.740Z,62.00
2022-08-26T04:26:57.722Z,62.70
2022-08-26T04:27:57.707Z,63.40
2022-08-26T04:28:57.690Z,63.60
2022-08-26T04:29:57.671Z,64.50
2022-08-26T04:30:57.713Z,63.40
2022-08-26T04:31:57.641Z,65.30
2022-08-26T04:32:57.629Z,64.20
2022-08-26T04:33:57.608Z,64.70
2022-08-26T04:34:57.594Z,64.90
2022-08-26T04:35:57.577Z,65.70
2022-08-26T04:36:57.573Z,65.40
2022-08-26T04:37:57.546Z,66.50
2022-08-26T04:38:57.530Z,66.20
2022-08-26T04:39:57.577Z,66.40
2022-08-26T04:40:57.500Z,65.60
2022-08-26T04:41:57.860Z,65.90
2022-08-26T04:42:57.468Z,67.60
2022-08-26T04:43:57.475Z,65.80
2022-08-26T04:44:57.442Z,66.60
2022-08-26T04:45:57.437Z,64.30
2022-08-26T04:46:57.402Z,65.60
2022-08-26T04:47:57.384Z,65.50
2022-08-26T04:48:57.371Z,65.80
2022-08-26T04:49:57.354Z,63.80
2022-08-26T04:50:57.338Z,63.60
2022-08-26T04:51:57.328Z,63.70
2022-08-26T04:52:57.307Z,63.50
2022-08-26T04:53:57.356Z,62.40
2022-08-26T04:54:57.279Z,62.70
2022-08-26T04:55:57.256Z,63.60
2022-08-26T04:56:57.242Z,62.20
2022-08-26T04:57:57.224Z,63.20
2022-08-26T04:58:57.208Z,62.70
2022-08-26T04:59:57.192Z,62.60
2022-08-26T05:00:57.179Z,60.20
2022-08-26T05:01:57.264Z,60.70
2022-08-26T05:02:57.146Z,61.20
2022-08-26T05:03:57.158Z,61.50
2022-08-26T05:04:57.115Z,59.50
2022-08-26T05:05:57.094Z,61.50
2022-08-26T05:07:02.920Z,60.50
2022-08-26T05:07:57.064Z,60.30
2022-08-26T05:08:57.052Z,60.60
2022-08-26T05:09:57.028Z,58.60
2022-08-26T05:10:57.022Z,59.70
2022-08-26T05:11:56.997Z,60.00
2022-08-26T05:12:56.984Z,58.70
2022-08-26T05:14:01.616Z,59.30
2022-08-26T05:14:56.953Z,59.60
2022-08-26T05:16:01.128Z,59.50
2022-08-26T05:16:56.918Z,60.00
2022-08-26T05:17:56.902Z,60.00
2022-08-26T05:18:56.891Z,57.40
2022-08-26T05:19:56.872Z,58.00
2022-08-26T05:20:56.857Z,59.20
2022-08-26T05:21:56.837Z,58.50
2022-08-26T05:22:56.822Z,56.30
2022-08-26T05:23:56.804Z,58.80
2022-08-26T05:24:56.791Z,59.80
2022-08-26T05:25:59.318Z,59.70
2022-08-26T05:26:56.761Z,58.10
2022-08-26T05:27:56.745Z,57.00
2022-08-26T05:28:56.727Z,57.40
2022-08-26T05:29:56.708Z,56.20
2022-08-26T05:30:56.727Z,56.50
2022-08-26T05:31:56.677Z,55.50
2022-08-26T05:32:56.661Z,56.40
2022-08-26T05:33:56.645Z,55.80
2022-08-26T05:34:56.628Z,56.80
2022-08-26T05:35:56.616Z,56.30
2022-08-26T05:36:56.600Z,57.00
2022-08-26T05:37:56.579Z,57.40
2022-08-26T05:38:56.563Z,54.90
2022-08-26T05:39:56.568Z,54.90
2022-08-26T05:40:56.533Z,56.80
2022-08-26T05:41:56.516Z,54.10
2022-08-26T05:42:56.500Z,53.30
2022-08-26T05:43:56.481Z,55.40
2022-08-26T05:44:56.469Z,54.70
2022-08-26T05:45:56.483Z,55.30
2022-08-26T05:46:56.436Z,53.10
2022-08-26T05:47:56.417Z,54.00
2022-08-26T05:48:56.403Z,53.70
2022-08-26T05:49:56.385Z,52.70
2022-08-26T05:50:56.369Z,55.20
2022-08-26T05:51:56.356Z,54.00
2022-08-26T05:52:56.341Z,52.60
2022-08-26T05:53:56.321Z,53.80
2022-08-26T05:54:56.305Z,51.70
2022-08-26T05:55:56.291Z,52.20
2022-08-26T05:56:56.276Z,52.10
2022-08-26T05:57:56.257Z,51.20
2022-08-26T05:58:56.243Z,51.50
2022-08-26T05:59:56.241Z,51.00
2022-08-26T06:00:56.211Z,50.90
2022-08-26T06:01:56.266Z,51.00
2022-08-26T06:02:56.278Z,50.90
2022-08-26T06:03:56.372Z,50.90
2022-08-26T06:04:56.147Z,49.10
2022-08-26T06:05:56.128Z,51.60
2022-08-26T06:06:56.112Z,49.20
2022-08-26T06:07:56.095Z,50.10
2022-08-26T06:08:56.083Z,50.10
2022-08-26T06:10:05.497Z,50.00
2022-08-26T06:10:56.051Z,48.90
2022-08-26T06:11:56.042Z,47.40
2022-08-26T06:12:56.018Z,48.60
2022-08-26T06:14:01.218Z,45.80
2022-08-26T06:14:55.985Z,48.00
2022-08-26T06:15:56.069Z,47.10
2022-08-26T06:16:55.955Z,47.30
2022-08-26T06:17:55.938Z,47.90
2022-08-26T06:18:55.925Z,48.30
2022-08-26T06:19:55.903Z,48.20
2022-08-26T06:20:57.934Z,48.20
2022-08-26T06:21:55.876Z,45.80
2022-08-26T06:22:55.857Z,46.60
2022-08-26T06:23:55.838Z,47.50
2022-08-26T06:24:55.826Z,46.00
2022-08-26T06:25:55.811Z,47.50
2022-08-26T06:26:55.793Z,46.30
2022-08-26T06:27:55.777Z,46.30
2022-08-26T06:28:55.764Z,45.10
2022-08-26T06:29:55.748Z,46.70
2022-08-26T06:30:55.794Z,46.20
2022-08-26T06:31:56.216Z,47.30
2022-08-26T06:32:55.701Z,45.80
2022-08-26T06:33:55.680Z,47.20
2022-08-26T06:34:55.663Z,46.10
2022-08-26T06:35:55.651Z,45.80
2022-08-26T06:36:55.634Z,45.20
2022-08-26T06:37:55.617Z,45.90
2022-08-26T06:38:55.605Z,47.20
2022-08-26T06:39:55.661Z,45.00
2022-08-26T06:40:55.569Z,45.10
2022-08-26T06:41:55.552Z,45.80
2022-08-26T06:42:55.538Z,44.90
2022-08-26T06:43:55.580Z,45.00
2022-08-26T06:44:55.514Z,45.50
2022-08-26T06:45:55.527Z,44.80
2022-08-26T06:46:55.475Z,45.00
2022-08-26T06:47:55.454Z,44.10
2022-08-26T06:48:55.442Z,44.90
2022-08-26T06:49:55.422Z,44.20
2022-08-26T06:50:55.412Z,44.30
2022-08-26T06:51:55.412Z,44.80
2022-08-26T06:52:55.388Z,43.70
2022-08-26T06:53:55.361Z,42.80
2022-08-26T06:54:55.347Z,44.60
2022-08-26T06:55:55.388Z,43.80
2022-08-26T06:56:55.317Z,42.90
2022-08-26T06:57:55.297Z,42.70
2022-08-26T06:58:55.844Z,43.60
2022-08-26T06:59:55.267Z,42.30
2022-08-26T07:00:57.588Z,42.80
2022-08-26T07:01:55.376Z,42.10
2022-08-26T07:02:55.274Z,43.40
2022-08-26T07:03:55.203Z,42.90
2022-08-26T07:04:56.789Z,43.40
2022-08-26T07:05:55.172Z,42.70
2022-08-26T07:06:55.158Z,41.90
2022-08-26T07:07:55.140Z,42.60
2022-08-26T07:08:55.125Z,41.90
2022-08-26T07:09:55.107Z,43.40
2022-08-26T07:10:55.968Z,42.40
2022-08-26T07:11:55.076Z,42.40
2022-08-26T07:12:55.059Z,41.40
2022-08-26T07:13:55.044Z,42.00
2022-08-26T07:14:55.030Z,43.00
2022-08-26T07:15:57.388Z,43.30
2022-08-26T07:16:55.000Z,42.00
2022-08-26T07:17:54.979Z,42.10
2022-08-26T07:18:54.967Z,42.60
2022-08-26T07:19:54.950Z,42.40
2022-08-26T07:20:54.934Z,40.30
2022-08-26T07:21:54.919Z,40.80
2022-08-26T07:22:54.903Z,39.80
2022-08-26T07:24:00.040Z,40.00
2022-08-26T07:24:54.871Z,41.50
2022-08-26T07:25:54.855Z,40.60
2022-08-26T07:26:54.837Z,41.40
2022-08-26T07:27:54.827Z,42.10
2022-08-26T07:28:54.809Z,40.90
2022-08-26T07:29:54.793Z,42.30
2022-08-26T07:30:54.840Z,42.80
2022-08-26T07:31:54.764Z,42.00
2022-08-26T07:32:54.742Z,40.10
2022-08-26T07:33:54.729Z,41.60
2022-08-26T07:34:54.711Z,41.80
2022-08-26T07:35:54.696Z,40.20
2022-08-26T07:36:55.313Z,39.40
2022-08-26T07:37:57.083Z,40.90
2022-08-26T07:38:54.648Z,41.10
2022-08-26T07:39:54.724Z,38.80
2022-08-26T07:40:54.680Z,40.50
2022-08-26T07:41:54.675Z,39.40
2022-08-26T07:42:54.610Z,40.40
2022-08-26T07:43:54.570Z,38.90
2022-08-26T07:44:54.568Z,38.30
2022-08-26T07:45:54.547Z,40.60
2022-08-26T07:46:54.574Z,39.80
2022-08-26T07:47:54.508Z,38.30
2022-08-26T07:48:54.491Z,38.70
2022-08-26T07:49:54.479Z,37.10
2022-08-26T07:50:54.457Z,37.10
2022-08-26T07:51:54.452Z,38.40
2022-08-26T07:52:54.428Z,36.80
2022-08-26T07:53:54.411Z,36.10
2022-08-26T07:54:54.393Z,38.00
2022-08-26T07:55:54.387Z,38.00
2022-08-26T07:56:54.384Z,38.20
2022-08-26T07:57:54.349Z,38.80
2022-08-26T07:58:54.396Z,38.10
2022-08-26T07:59:55.251Z,37.50
2022-08-26T08:00:54.299Z,36.30
2022-08-26T08:01:54.331Z,37.50
2022-08-26T08:02:54.280Z,38.60
2022-08-26T08:03:54.259Z,36.80
2022-08-26T08:04:54.274Z,38.90
2022-08-26T08:05:54.247Z,37.80
2022-08-26T08:06:54.225Z,36.90
2022-08-26T08:07:54.262Z,38.40
2022-08-26T08:08:54.178Z,38.00
2022-08-26T08:09:54.188Z,38.30
2022-08-26T08:10:54.139Z,37.00
2022-08-26T08:11:54.128Z,38.90
2022-08-26T08:12:54.118Z,38.00
2022-08-26T08:13:56.449Z,38.30
2022-08-26T08:14:54.132Z,37.80
2022-08-26T08:15:54.065Z,36.10
2022-08-26T08:16:54.544Z,37.10
2022-08-26T08:17:55.580Z,36.60
2022-08-26T08:18:54.023Z,36.30
2022-08-26T08:19:54.003Z,36.50
2022-08-26T08:21:04.652Z,37.10
2022-08-26T08:21:53.970Z,36.80
2022-08-26T08:22:53.950Z,37.70
2022-08-26T08:23:53.944Z,36.60
2022-08-26T08:24:53.922Z,38.40
2022-08-26T08:25:53.906Z,37.60
2022-08-26T08:26:53.893Z,37.70
2022-08-26T08:27:53.874Z,35.70
2022-08-26T08:28:53.861Z,36.00
2022-08-26T08:29:53.850Z,36.20
2022-08-26T08:30:53.904Z,36.40
2022-08-26T08:31:57.042Z,37.90
2022-08-26T08:32:53.795Z,37.60
2022-08-26T08:33:53.785Z,36.30
2022-08-26T08:34:53.763Z,36.80
2022-08-26T08:35:53.750Z,36.00
2022-08-26T08:36:53.874Z,37.70
2022-08-26T08:37:53.717Z,36.60
2022-08-26T08:38:53.700Z,37.00
2022-08-26T08:39:53.714Z,37.40
2022-08-26T08:40:53.668Z,35.10
2022-08-26T08:41:53.654Z,37.20
2022-08-26T08:42:53.655Z,35.90
2022-08-26T08:43:53.623Z,36.70
2022-08-26T08:44:53.606Z,37.20
2022-08-26T08:45:53.656Z,35.50
2022-08-26T08:46:53.576Z,36.70
2022-08-26T08:47:54.615Z,36.50
2022-08-26T08:48:53.551Z,37.00
2022-08-26T08:49:53.528Z,37.00
2022-08-26T08:50:53.512Z,35.30
2022-08-26T08:51:53.498Z,35.80
2022-08-26T08:52:53.481Z,37.60
2022-08-26T08:53:54.852Z,35.60
2022-08-26T08:54:53.447Z,35.70
2022-08-26T08:55:53.431Z,35.70
2022-08-26T08:56:53.418Z,36.70
2022-08-26T08:57:53.700Z,36.70
2022-08-26T08:58:53.387Z,36.10
2022-08-26T08:59:53.422Z,36.30
2022-08-26T09:00:53.410Z,36.60
2022-08-26T09:01:53.909Z,35.10
2022-08-26T09:02:53.323Z,38.20
2022-08-26T09:03:53.310Z,37.00
2022-08-26T09:04:53.291Z,35.70
2022-08-26T09:05:53.279Z,36.00
2022-08-26T09:06:53.296Z,36.00
2022-08-26T09:07:53.248Z,36.60
2022-08-26T09:08:53.229Z,36.30
2022-08-26T09:09:53.214Z,34.70
2022-08-26T09:10:53.197Z,35.80
2022-08-26T09:11:53.184Z,34.40
2022-08-26T09:12:53.176Z,34.90
2022-08-26T09:13:53.151Z,35.70
2022-08-26T09:14:53.140Z,36.40
2022-08-26T09:15:53.121Z,35.50
2022-08-26T09:16:53.133Z,34.00
2022-08-26T09:17:53.093Z,34.60
2022-08-26T09:18:53.075Z,35.00
2022-08-26T09:19:53.070Z,34.80
2022-08-26T09:20:53.045Z,35.80
2022-08-26T09:21:53.512Z,35.90
2022-08-26T09:22:53.009Z,36.00
2022-08-26T09:23:52.995Z,34.70
2022-08-26T09:24:52.980Z,35.10
2022-08-26T09:26:52.990Z,35.00
2022-08-26T09:27:52.933Z,35.50
2022-08-26T09:28:52.922Z,34.90
2022-08-26T09:29:52.902Z,35.10
2022-08-26T09:30:52.934Z,34.80
2022-08-26T09:31:52.870Z,34.10
2022-08-26T09:32:56.312Z,35.00
2022-08-26T09:33:52.840Z,34.10
2022-08-26T09:34:52.823Z,34.60
2022-08-26T09:35:52.810Z,34.80
2022-08-26T09:36:52.795Z,34.10
2022-08-26T09:37:52.847Z,33.90
2022-08-26T09:38:52.763Z,34.30
2022-08-26T09:39:52.798Z,33.20
2022-08-26T09:40:58.970Z,32.60
2022-08-26T09:41:52.719Z,31.90
2022-08-26T09:42:52.700Z,33.10
2022-08-26T09:43:52.682Z,31.50
2022-08-26T09:44:52.671Z,32.70
2022-08-26T09:45:54.893Z,32.70
2022-08-26T09:46:52.637Z,32.10
2022-08-26T09:47:52.629Z,31.10
2022-08-26T09:48:53.205Z,31.00
2022-08-26T09:49:52.599Z,31.80
2022-08-26T09:50:52.575Z,30.90
2022-08-26T09:51:52.560Z,30.40
2022-08-26T09:52:52.544Z,30.40
2022-08-26T09:53:52.531Z,30.80
2022-08-26T09:54:52.514Z,30.80
2022-08-26T09:55:52.497Z,30.50
2022-08-26T09:56:52.483Z,31.20
2022-08-26T09:57:52.466Z,31.30
2022-08-26T09:58:52.451Z,29.00
2022-08-26T09:59:52.438Z,30.20
2022-08-26T10:00:52.466Z,30.40
2022-08-26T10:01:52.625Z,31.40
2022-08-26T10:02:54.781Z,30.40
2022-08-26T10:03:52.429Z,28.70
2022-08-26T10:04:52.358Z,29.70
2022-08-26T10:05:52.344Z,28.70
2022-08-26T10:06:52.327Z,28.90
2022-08-26T10:07:52.314Z,29.30
2022-08-26T10:08:52.299Z,29.90
2022-08-26T10:09:52.284Z,28.60
2022-08-26T10:10:53.358Z,29.70
2022-08-26T10:11:52.254Z,27.40
2022-08-26T10:12:52.237Z,30.20
2022-08-26T10:13:52.223Z,28.20
2022-08-26T10:14:52.229Z,27.90
2022-08-26T10:15:52.191Z,28.30
2022-08-26T10:16:52.274Z,28.40
2022-08-26T10:17:52.174Z,29.00
2022-08-26T10:18:54.681Z,28.00
2022-08-26T10:19:56.910Z,28.20
2022-08-26T10:20:52.114Z,27.70
2022-08-26T10:21:52.273Z,29.40
2022-08-26T10:22:52.081Z,29.60
2022-08-26T10:23:52.070Z,28.30
2022-08-26T10:24:55.128Z,28.70
2022-08-26T10:25:52.039Z,27.50
2022-08-26T10:26:52.074Z,26.90
2022-08-26T10:27:53.746Z,29.30
2022-08-26T10:28:51.989Z,28.50
2022-08-26T10:29:52.516Z,28.30
2022-08-26T10:30:51.961Z,28.30
2022-08-26T10:31:52.136Z,27.70
2022-08-26T10:32:51.931Z,27.40
2022-08-26T10:33:56.656Z,27.00
2022-08-26T10:34:51.900Z,28.30
2022-08-26T10:35:51.888Z,28.10
2022-08-26T10:37:14.655Z,27.70
2022-08-26T10:37:51.854Z,27.20
2022-08-26T10:38:51.839Z,27.60
2022-08-26T10:39:56.893Z,27.30
2022-08-26T10:40:51.855Z,27.40
2022-08-26T10:41:51.793Z,27.10
2022-08-26T10:42:51.775Z,26.70
2022-08-26T10:43:51.762Z,26.40
2022-08-26T10:44:51.751Z,26.10
2022-08-26T10:45:51.779Z,25.50
2022-08-26T10:46:51.716Z,26.30
2022-08-26T10:47:51.705Z,26.20
2022-08-26T10:48:52.023Z,25.60
2022-08-26T10:49:51.671Z,25.30
2022-08-26T10:50:51.656Z,25.10
2022-08-26T10:51:51.651Z,25.60
2022-08-26T10:52:51.643Z,25.20
2022-08-26T10:53:51.726Z,23.80
2022-08-26T10:54:51.610Z,25.00
2022-08-26T10:55:51.586Z,24.30
2022-08-26T10:56:51.566Z,24.60
2022-08-26T10:57:51.548Z,25.20
2022-08-26T10:58:51.532Z,24.80
2022-08-26T10:59:51.627Z,23.80
2022-08-26T11:00:51.582Z,23.90
2022-08-26T11:01:52.499Z,23.10
2022-08-26T11:02:51.470Z,23.40
2022-08-26T11:03:51.518Z,23.60
2022-08-26T11:04:51.529Z,22.70
2022-08-26T11:05:51.424Z,21.60
2022-08-26T11:06:51.409Z,22.30
2022-08-26T11:07:51.397Z,20.70
2022-08-26T11:08:51.381Z,20.10
2022-08-26T11:09:51.365Z,19.50
2022-08-26T11:10:51.348Z,20.40
2022-08-26T11:11:51.337Z,19.80
2022-08-26T11:12:51.318Z,19.50
2022-08-26T11:13:51.304Z,20.50
2022-08-26T11:14:58.432Z,19.60
2022-08-26T11:15:51.338Z,20.10
2022-08-26T11:16:51.363Z,20.80
2022-08-26T11:17:51.334Z,20.20
2022-08-26T11:18:51.474Z,18.80
2022-08-26T11:20:00.892Z,19.10
2022-08-26T11:20:51.198Z,18.00
2022-08-26T11:21:51.188Z,17.90
2022-08-26T11:22:51.174Z,18.50
2022-08-26T11:23:52.948Z,17.90
2022-08-26T11:24:51.145Z,17.00
2022-08-26T11:25:51.125Z,17.60
2022-08-26T11:26:56.215Z,16.60
2022-08-26T11:27:51.095Z,16.50
2022-08-26T11:28:51.116Z,16.20
2022-08-26T11:29:51.063Z,17.60
2022-08-26T11:30:56.834Z,17.00
2022-08-26T11:31:51.078Z,15.70
2022-08-26T11:32:51.027Z,14.90
2022-08-26T11:33:51.190Z,15.80
2022-08-26T11:34:50.987Z,15.20
2022-08-26T11:35:50.979Z,14.70
2022-08-26T11:36:50.959Z,15.10
2022-08-26T11:37:50.948Z,15.20
2022-08-26T11:38:50.935Z,14.90
2022-08-26T11:39:55.037Z,15.00
2022-08-26T11:40:50.912Z,14.90
2022-08-26T11:41:52.676Z,14.10
2022-08-26T11:42:50.878Z,14.80
2022-08-26T11:43:50.853Z,14.20
2022-08-26T11:44:50.837Z,14.30
2022-08-26T11:45:50.861Z,14.00
2022-08-26T11:46:50.809Z,14.20
2022-08-26T11:47:50.792Z,13.80
2022-08-26T11:48:50.789Z,13.90
2022-08-26T11:49:50.771Z,13.80
2022-08-26T11:50:50.858Z,13.50
2022-08-26T11:51:50.732Z,13.90
2022-08-26T11:52:50.720Z,13.30
2022-08-26T11:53:50.702Z,13.60
2022-08-26T11:54:50.690Z,14.30
2022-08-26T11:55:50.678Z,13.90
2022-08-26T11:56:50.706Z,12.50
2022-08-26T11:57:50.643Z,12.30
2022-08-26T11:58:50.630Z,13.50
2022-08-26T11:59:50.614Z,13.20
2022-08-26T12:00:50.611Z,13.50
2022-08-26T12:01:50.582Z,13.30
2022-08-26T12:02:50.571Z,13.50
2022-08-26T12:03:50.707Z,12.60
2022-08-26T12:04:50.568Z,12.70
2022-08-26T12:05:50.524Z,12.80
2022-08-26T12:06:50.513Z,12.50
2022-08-26T12:07:50.495Z,12.90
2022-08-26T12:08:50.486Z,12.10
2022-08-26T12:09:50.463Z,12.30
2022-08-26T12:10:50.456Z,11.70
2022-08-26T12:11:50.436Z,11.40
2022-08-26T12:12:50.421Z,11.00
2022-08-26T12:13:50.408Z,11.20
2022-08-26T12:14:50.393Z,10.60
2022-08-26T12:15:50.378Z,10.90
2022-08-26T12:16:50.460Z,10.80
2022-08-26T12:17:54.373Z,10.80
2022-08-26T12:18:50.336Z,10.50
2022-08-26T12:19:50.316Z,11.10
2022-08-26T12:20:50.307Z,11.50
2022-08-26T12:21:50.288Z,10.30
2022-08-26T12:22:50.277Z,10.30
2022-08-26T12:23:50.261Z,10.40
2022-08-26T12:24:50.245Z,10.40
2022-08-26T12:25:50.228Z,9.50
2022-08-26T12:26:50.216Z,10.10
2022-08-26T12:27:53.743Z,9.20
2022-08-26T12:28:50.186Z,9.60
2022-08-26T12:29:50.171Z,8.70
2022-08-26T12:30:50.194Z,8.60
2022-08-26T12:31:50.202Z,8.40
2022-08-26T12:32:57.279Z,9.00
2022-08-26T12:33:50.112Z,7.70
2022-08-26T12:34:50.106Z,8.60
2022-08-26T12:35:52.885Z,7.80
2022-08-26T12:36:50.275Z,7.70
2022-08-26T12:37:50.051Z,8.50
2022-08-26T12:38:50.041Z,8.20
2022-08-26T12:39:50.091Z,7.60
2022-08-26T12:40:50.023Z,7.90
2022-08-26T12:41:49.996Z,7.70
2022-08-26T12:42:50.032Z,7.70
2022-08-26T12:43:50.028Z,7.70
2022-08-26T12:44:53.150Z,7.70
2022-08-26T12:45:49.969Z,7.70
2022-08-26T12:46:50.065Z,7.90
2022-08-26T12:47:49.984Z,8.10
2022-08-26T12:48:49.904Z,7.30
2022-08-26T12:49:49.929Z,7.30
2022-08-26T12:50:49.876Z,7.30
2022-08-26T12:51:49.847Z,6.90
2022-08-26T12:52:49.837Z,6.80
2022-08-26T12:53:49.825Z,6.60
2022-08-26T12:54:53.510Z,7.10